createdAt,value
2022-08-05T00:00:56.144Z,100567.09
2022-08-05T00:03:44.338Z,100536.72
2022-08-05T00:06:27.738Z,100567.09
2022-08-05T00:09:02.148Z,100556.31
2022-08-05T00:11:35.034Z,100556.31
2022-08-05T00:14:12.082Z,100560.00
2022-08-05T00:16:52.511Z,100567.09
2022-08-05T00:19:22.667Z,100567.09
2022-08-05T00:21:51.541Z,100549.38
2022-08-05T00:24:24.558Z,100563.06
2022-08-05T00:26:53.517Z,100567.59
2022-08-05T00:29:25.537Z,100563.06
2022-08-05T00:32:13.385Z,100553.47
2022-08-05T00:35:04.349Z,100558.69
2022-08-05T00:37:50.603Z,100524.22
2022-08-05T00:40:26.707Z,100542.09
2022-08-05T00:42:55.841Z,100573.84
2022-08-05T00:45:24.985Z,100578.38
2022-08-05T00:48:06.519Z,100491.97
2022-08-05T00:50:35.078Z,100561.38
2022-08-05T00:53:03.744Z,100566.78
2022-08-05T00:55:42.798Z,100566.78
2022-08-05T00:58:12.093Z,100526.59
2022-08-05T01:00:41.001Z,100560.34
2022-08-05T01:03:22.260Z,100556.81
2022-08-05T01:05:51.165Z,100554.28
2022-08-05T01:08:40.028Z,100559.34
2022-08-05T01:11:14.108Z,100559.66
2022-08-05T01:14:01.803Z,100564.25
2022-08-05T01:16:34.974Z,100568.44
2022-08-05T01:19:11.812Z,100578.38
2022-08-05T01:21:59.963Z,100552.22
2022-08-05T01:24:45.438Z,100556.59
2022-08-05T01:27:33.046Z,100572.16
2022-08-05T01:30:18.679Z,100577.53
2022-08-05T01:32:50.462Z,100575.84
2022-08-05T01:35:51.215Z,100584.94
2022-08-05T01:38:14.670Z,100584.94
2022-08-05T01:40:56.804Z,100576.84
2022-08-05T01:43:26.111Z,100583.91
2022-08-05T01:45:57.134Z,100584.94
2022-08-05T01:48:26.179Z,100588.31
2022-08-05T01:50:57.087Z,100580.25
2022-08-05T01:53:54.548Z,100580.06
2022-08-05T01:58:10.637Z,100563.91
2022-08-05T01:59:11.821Z,100554.28
2022-08-05T02:01:42.182Z,100551.41
2022-08-05T02:04:10.863Z,100562.19
2022-08-05T02:06:39.890Z,100556.00
2022-08-05T02:09:09.721Z,100561.38
2022-08-05T02:11:52.224Z,100554.28
2022-08-05T02:14:29.235Z,100559.66
2022-08-05T02:17:07.990Z,100565.06
2022-08-05T02:19:52.261Z,100561.38
2022-08-05T02:22:28.162Z,100552.59
2022-08-05T02:25:06.252Z,100558.00
2022-08-05T02:27:58.911Z,100556.00
2022-08-05T02:30:32.031Z,100565.91
2022-08-05T02:33:06.648Z,100559.66
2022-08-05T02:35:37.709Z,100561.69
2022-08-05T02:38:19.147Z,100525.94
2022-08-05T02:40:47.940Z,100553.47
2022-08-05T02:43:17.922Z,100554.28
2022-08-05T02:45:52.501Z,100550.59
2022-08-05T02:48:29.374Z,100558.69
2022-08-05T02:50:59.884Z,100558.69
2022-08-05T02:53:28.561Z,100508.38
2022-08-05T02:56:09.061Z,100553.28
2022-08-05T02:58:38.122Z,100556.97
2022-08-05T03:01:19.473Z,100546.84
2022-08-05T03:04:02.821Z,100564.06
2022-08-05T03:06:55.959Z,100554.28
2022-08-05T03:09:36.403Z,100564.25
2022-08-05T03:12:08.192Z,100565.06
2022-08-05T03:14:39.005Z,100565.91
2022-08-05T03:17:14.155Z,100554.28
2022-08-05T03:19:45.662Z,100559.66
2022-08-05T03:22:16.482Z,100552.59
2022-08-05T03:24:50.806Z,100539.81
2022-08-05T03:27:21.480Z,100514.50
2022-08-05T03:30:08.432Z,100529.38
2022-08-05T03:32:37.493Z,100551.41
2022-08-05T03:35:09.029Z,100566.78
2022-08-05T03:37:46.152Z,100562.19
2022-08-05T03:40:15.862Z,100532.34
2022-08-05T03:42:52.992Z,100556.00
2022-08-05T03:45:23.278Z,100551.25
2022-08-05T03:47:57.213Z,100537.41
2022-08-05T03:50:30.215Z,100547.06
2022-08-05T03:55:51.092Z,100556.31
2022-08-05T03:56:12.080Z,100564.25
2022-08-05T03:58:48.235Z,100499.56
2022-08-05T04:01:22.248Z,100529.63
2022-08-05T04:04:09.912Z,100560.69
2022-08-05T04:06:47.522Z,100568.78
2022-08-05T04:09:20.223Z,100556.63
2022-08-05T04:11:56.690Z,100559.66
2022-08-05T04:14:29.853Z,100565.06
2022-08-05T04:17:00.834Z,100550.50
2022-08-05T04:19:31.309Z,100540.59
2022-08-05T04:22:08.391Z,100552.59
2022-08-05T04:24:43.782Z,100542.81
2022-08-05T04:27:13.522Z,100558.31
2022-08-05T04:29:41.509Z,100551.75
2022-08-05T04:32:10.613Z,100543.81
2022-08-05T04:34:42.600Z,100561.69
2022-08-05T04:37:12.957Z,100554.59
2022-08-05T04:39:41.015Z,100550.06
2022-08-05T04:42:09.912Z,100504.09
2022-08-05T04:44:37.918Z,100560.00
2022-08-05T04:47:09.571Z,100554.59
2022-08-05T04:50:01.622Z,100553.78
2022-08-05T04:52:28.349Z,100559.16
2022-08-05T04:54:56.898Z,100565.38
2022-08-05T04:57:29.143Z,100565.38
2022-08-05T04:59:58.511Z,100543.44
2022-08-05T05:02:36.741Z,100576.16
2022-08-05T05:05:16.878Z,100552.88
2022-08-05T05:08:01.668Z,100558.31
2022-08-05T05:10:30.593Z,100559.34
2022-08-05T05:13:03.782Z,100574.81
2022-08-05T05:15:56.521Z,100580.19
2022-08-05T05:18:28.343Z,100601.06
2022-08-05T05:21:01.359Z,100596.03
2022-08-05T05:23:39.256Z,100594.84
2022-08-05T05:26:18.768Z,100567.00
2022-08-05T05:28:46.913Z,100579.56
2022-08-05T05:31:15.042Z,100563.38
2022-08-05T05:33:59.221Z,100540.97
2022-08-05T05:36:30.425Z,100541.13
2022-08-05T05:39:03.831Z,100564.25
2022-08-05T05:41:40.081Z,100552.94
2022-08-05T05:44:35.837Z,100568.78
2022-08-05T05:46:58.510Z,100578.53
2022-08-05T05:49:32.406Z,100562.38
2022-08-05T05:52:01.410Z,100553.25
2022-08-05T05:54:50.761Z,100575.00
2022-08-05T05:57:20.506Z,100565.06
2022-08-05T05:59:49.244Z,100573.84
2022-08-05T06:02:32.866Z,100579.22
2022-08-05T06:05:15.734Z,100581.22
2022-08-05T06:08:01.130Z,100574.69
2022-08-05T06:10:34.500Z,100561.38
2022-08-05T06:13:05.132Z,100545.53
2022-08-05T06:16:28.161Z,100558.00
2022-08-05T06:18:21.555Z,100558.31
2022-08-05T06:20:59.391Z,100570.44
2022-08-05T06:23:27.327Z,100569.78
2022-08-05T06:26:21.525Z,100584.94
2022-08-05T06:28:51.887Z,100586.63
2022-08-05T06:31:22.052Z,100584.78
2022-08-05T06:34:08.015Z,100568.78
2022-08-05T06:36:53.680Z,100571.47
2022-08-05T06:39:27.269Z,100568.78
2022-08-05T06:41:59.292Z,100546.84
2022-08-05T06:44:27.447Z,100568.78
2022-08-05T06:46:55.599Z,100587.47
2022-08-05T06:50:00.552Z,100592.00
2022-08-05T06:52:36.758Z,100590.16
2022-08-05T06:55:03.287Z,100593.03
2022-08-05T06:58:02.610Z,100584.56
2022-08-05T07:00:24.779Z,100588.97
2022-08-05T07:02:54.304Z,100599.44
2022-08-05T07:05:31.800Z,100601.09
2022-08-05T07:08:10.627Z,100529.84
2022-08-05T07:10:39.804Z,100592.00
2022-08-05T07:13:59.391Z,100576.53
2022-08-05T07:18:00.541Z,100554.75
2022-08-05T07:22:28.460Z,100584.97
2022-08-05T07:24:58.404Z,100581.09
2022-08-05T07:27:27.519Z,100570.50
2022-08-05T07:30:27.214Z,100575.50
2022-08-05T07:32:59.100Z,100590.69
2022-08-05T07:36:04.969Z,100582.94
2022-08-05T07:38:33.040Z,100593.56
2022-08-05T07:42:08.073Z,100599.47
2022-08-05T07:43:51.301Z,100601.16
2022-08-05T07:46:25.256Z,100602.00
2022-08-05T07:49:04.339Z,100598.09
2022-08-05T07:51:40.687Z,100565.72
2022-08-05T07:54:18.755Z,100587.84
2022-08-05T07:57:02.876Z,100592.38
2022-08-05T07:59:40.343Z,100605.19
2022-08-05T08:02:16.169Z,100594.41
2022-08-05T08:04:46.759Z,100594.75
2022-08-05T08:07:15.377Z,100607.19
2022-08-05T08:09:43.961Z,100606.53
2022-08-05T08:12:37.377Z,100615.59
2022-08-05T08:15:02.522Z,100622.00
2022-08-05T08:17:32.949Z,100601.75
2022-08-05T08:20:42.897Z,100624.00
2022-08-05T08:22:52.980Z,100627.72
2022-08-05T08:25:26.905Z,100574.75
2022-08-05T08:28:11.404Z,100614.41
2022-08-05T08:30:49.952Z,100604.97
2022-08-05T08:33:19.905Z,100605.81
2022-08-05T08:35:52.993Z,100593.19
2022-08-05T08:38:35.381Z,100604.81
2022-08-05T08:41:08.675Z,100608.81
2022-08-05T08:45:23.786Z,100606.81
2022-08-05T08:46:29.268Z,100592.25
2022-08-05T08:50:03.827Z,100607.47
2022-08-05T08:52:03.127Z,100622.97
2022-08-05T08:54:36.519Z,100619.28
2022-08-05T08:57:11.286Z,100607.66
2022-08-05T08:59:47.391Z,100561.50
2022-08-05T09:02:19.169Z,100590.59
2022-08-05T09:05:16.359Z,100619.28
2022-08-05T09:07:39.919Z,100620.59
2022-08-05T09:10:27.645Z,100605.13
2022-08-05T09:13:04.841Z,100577.03
2022-08-05T09:15:36.917Z,100614.91
2022-08-05T09:18:08.687Z,100614.91
2022-08-05T09:20:39.042Z,100563.50
2022-08-05T09:23:19.901Z,100614.53
2022-08-05T09:26:02.927Z,100600.72
2022-08-05T09:28:34.095Z,100623.31
2022-08-05T09:31:22.523Z,100615.91
2022-08-05T09:33:56.397Z,100580.13
2022-08-05T09:36:27.357Z,100616.06
2022-08-05T09:39:03.904Z,100620.97
2022-08-05T09:41:58.376Z,100611.19
2022-08-05T09:44:41.280Z,100605.97
2022-08-05T09:47:15.630Z,100615.91
2022-08-05T09:50:01.779Z,100588.88
2022-08-05T09:52:34.136Z,100598.69
2022-08-05T09:55:06.256Z,100614.22
2022-08-05T09:57:54.794Z,100601.75
2022-08-05T10:00:26.800Z,100565.22
2022-08-05T10:02:58.041Z,100619.59
2022-08-05T10:05:28.274Z,100626.69
2022-08-05T10:08:35.510Z,100599.97
2022-08-05T10:10:50.393Z,100606.28
2022-08-05T10:13:43.978Z,100590.59
2022-08-05T10:16:34.200Z,100623.31
2022-08-05T10:19:09.414Z,100599.88
2022-08-05T10:21:40.331Z,100617.91
2022-08-05T10:24:13.659Z,100612.19
2022-08-05T10:26:51.207Z,100582.84
2022-08-05T10:29:23.594Z,100597.72
2022-08-05T10:32:52.277Z,100603.09
2022-08-05T10:35:00.725Z,100578.09
2022-08-05T10:37:40.123Z,100598.56
2022-08-05T10:40:28.258Z,100596.69
2022-08-05T10:43:02.539Z,100612.19
2022-08-05T10:45:40.408Z,100606.81
2022-08-05T10:48:39.620Z,100612.19
2022-08-05T10:51:28.303Z,100609.13
2022-08-05T10:54:01.576Z,100606.81
2022-08-05T10:56:37.757Z,100607.13
2022-08-05T10:59:12.703Z,100606.81
2022-08-05T11:02:14.693Z,100541.94
2022-08-05T11:04:59.349Z,100598.72
2022-08-05T11:07:33.174Z,100595.03
2022-08-05T11:10:27.603Z,100605.13
2022-08-05T11:13:01.254Z,100571.03
2022-08-05T11:16:00.688Z,100604.13
2022-08-05T11:18:30.243Z,100599.75
2022-08-05T11:21:02.978Z,100579.81
2022-08-05T11:24:04.473Z,100594.31
2022-08-05T11:26:33.341Z,100606.13
2022-08-05T11:29:11.573Z,100617.59
2022-08-05T11:31:54.542Z,100558.13
2022-08-05T11:34:38.859Z,100597.00
2022-08-05T11:38:36.453Z,100611.16
2022-08-05T11:40:02.872Z,100587.19
2022-08-05T11:42:40.140Z,100593.94
2022-08-05T11:45:23.185Z,100604.06
2022-08-05T11:47:58.897Z,100615.91
2022-08-05T11:50:27.323Z,100630.38
2022-08-05T11:52:58.298Z,100634.09
2022-08-05T11:55:32.181Z,100635.75
2022-08-05T11:58:09.771Z,100627.34
2022-08-05T12:00:44.116Z,100643.53
2022-08-05T12:03:29.681Z,100642.84
2022-08-05T12:06:12.420Z,100634.72
2022-08-05T12:08:49.851Z,100570.53
2022-08-05T12:11:21.057Z,100633.38
2022-08-05T12:13:59.375Z,100648.25
2022-08-05T12:16:38.406Z,100642.84
2022-08-05T12:19:08.231Z,100639.78
2022-08-05T12:21:43.142Z,100624.97
2022-08-05T12:24:14.076Z,100591.13
2022-08-05T12:26:48.183Z,100600.91
2022-08-05T12:29:22.932Z,100636.94
2022-08-05T12:31:55.350Z,100655.00
2022-08-05T12:34:28.374Z,100649.59
2022-08-05T12:36:58.243Z,100634.78
2022-08-05T12:39:34.385Z,100599.59
2022-08-05T12:42:14.873Z,100647.94
2022-08-05T12:44:44.687Z,100644.22
2022-08-05T12:47:28.615Z,100639.84
2022-08-05T12:50:03.284Z,100623.25
2022-08-05T12:52:41.923Z,100642.53
2022-08-05T12:55:23.261Z,100622.06
2022-08-05T12:58:39.173Z,100564.91
2022-08-05T13:02:01.082Z,100620.88
2022-08-05T13:03:39.014Z,100637.47
2022-08-05T13:06:16.285Z,100642.84
2022-08-05T13:08:51.866Z,100651.94
2022-08-05T13:11:59.776Z,100649.41
2022-08-05T13:14:25.005Z,100650.25
2022-08-05T13:17:05.060Z,100648.56
2022-08-05T13:19:52.512Z,100593.81
2022-08-05T13:22:28.515Z,100651.09
2022-08-05T13:25:00.661Z,100651.94
2022-08-05T13:27:38.453Z,100594.47
2022-08-05T13:30:35.430Z,100629.97
2022-08-05T13:33:01.624Z,100638.75
2022-08-05T13:35:47.300Z,100616.97
2022-08-05T13:38:30.563Z,100659.69
2022-08-05T13:41:04.294Z,100651.78
2022-08-05T13:43:45.130Z,100649.06
2022-08-05T13:46:43.943Z,100653.63
2022-08-05T13:49:10.122Z,100625.28
2022-08-05T13:51:46.590Z,100633.53
2022-08-05T13:54:15.962Z,100616.13
2022-08-05T13:56:50.722Z,100621.72
2022-08-05T13:59:24.552Z,100657.31
2022-08-05T14:01:57.444Z,100645.56
2022-08-05T14:04:49.149Z,100653.63
2022-08-05T14:07:26.282Z,100607.38
2022-08-05T14:10:11.159Z,100646.53
2022-08-05T14:12:40.167Z,100651.94
2022-08-05T14:16:05.260Z,100642.84
2022-08-05T14:18:01.454Z,100647.56
2022-08-05T14:20:30.833Z,100644.84
2022-08-05T14:23:00.609Z,100623.31
2022-08-05T14:25:30.504Z,100621.25
2022-08-05T14:27:59.817Z,100631.38
2022-08-05T14:30:28.685Z,100619.56
2022-08-05T14:32:58.908Z,100630.38
2022-08-05T14:35:36.303Z,100648.25
2022-08-05T14:38:32.192Z,100647.41
2022-08-05T14:41:05.965Z,100646.38
2022-08-05T14:43:59.674Z,100648.25
2022-08-05T14:46:28.098Z,100649.94
2022-08-05T14:48:56.881Z,100653.63
2022-08-05T14:51:25.428Z,100616.72
2022-08-05T14:54:26.450Z,100670.63
2022-08-05T14:56:48.656Z,100663.34
2022-08-05T14:59:17.153Z,100669.81
2022-08-05T15:01:48.091Z,100651.94
2022-08-05T15:04:17.418Z,100635.03
2022-08-05T15:06:49.406Z,100657.63
2022-08-05T15:09:52.342Z,100676.03
2022-08-05T15:12:08.741Z,100681.41
2022-08-05T15:14:48.086Z,100666.09
2022-08-05T15:17:44.406Z,100651.94
2022-08-05T15:20:09.780Z,100611.47
2022-08-05T15:22:45.609Z,100662.72
2022-08-05T15:25:14.965Z,100664.41
2022-08-05T15:27:52.199Z,100660.72
2022-08-05T15:30:20.647Z,100669.81
2022-08-05T15:32:50.332Z,100670.63
2022-08-05T15:35:18.984Z,100603.25
2022-08-05T15:38:33.519Z,100653.63
2022-08-05T15:40:59.937Z,100656.34
2022-08-05T15:43:27.613Z,100641.16
2022-08-05T15:46:00.565Z,100630.38
2022-08-05T15:48:30.252Z,100572.94
2022-08-05T15:51:01.515Z,100619.59
2022-08-05T15:53:38.453Z,100627.00
2022-08-05T15:56:20.660Z,100604.06
2022-08-05T15:58:49.786Z,100586.50
2022-08-05T16:01:20.002Z,100587.53
2022-08-05T16:03:50.467Z,100610.53
2022-08-05T16:06:20.336Z,100615.91
2022-08-05T16:08:50.950Z,100607.84
2022-08-05T16:11:42.650Z,100618.88
2022-08-05T16:14:10.762Z,100594.91
2022-08-05T16:16:46.151Z,100617.06
2022-08-05T16:19:25.711Z,100620.59
2022-08-05T16:22:03.066Z,100617.91
2022-08-05T16:24:41.454Z,100621.63
2022-08-05T16:27:32.294Z,100628.69
2022-08-05T16:30:25.533Z,100614.69
2022-08-05T16:32:56.041Z,100634.09
2022-08-05T16:35:27.748Z,100634.09
2022-08-05T16:38:03.378Z,100633.06
2022-08-05T16:40:52.146Z,100648.56
2022-08-05T16:43:25.592Z,100650.25
2022-08-05T16:46:04.032Z,100646.84
2022-08-05T16:48:36.437Z,100639.94
2022-08-05T16:51:09.390Z,100622.91
2022-08-05T16:54:05.177Z,100649.56
2022-08-05T16:56:27.572Z,100649.41
2022-08-05T16:58:57.257Z,100609.66
2022-08-05T17:01:25.233Z,100648.56
2022-08-05T17:03:53.417Z,100628.63
2022-08-05T17:06:24.663Z,100658.34
2022-08-05T17:08:54.392Z,100661.03
2022-08-05T17:11:25.259Z,100651.94
2022-08-05T17:14:00.356Z,100637.69
2022-08-05T17:16:37.201Z,100630.91
2022-08-05T17:19:07.179Z,100657.31
2022-08-05T17:21:36.873Z,100651.94
2022-08-05T17:24:14.267Z,100653.63
2022-08-05T17:26:55.562Z,100664.41
2022-08-05T17:29:32.820Z,100633.38
2022-08-05T17:32:03.573Z,100648.88
2022-08-05T17:34:34.861Z,100576.22
2022-08-05T17:37:04.662Z,100606.28
2022-08-05T17:39:56.069Z,100624.91
2022-08-05T17:42:32.383Z,100651.59
2022-08-05T17:45:09.945Z,100646.53
2022-08-05T17:47:54.651Z,100617.16
2022-08-05T17:50:28.888Z,100649.41
2022-08-05T17:53:00.281Z,100649.22
2022-08-05T17:55:34.462Z,100651.94
2022-08-05T17:58:09.766Z,100616.66
2022-08-05T18:00:44.727Z,100627.28
2022-08-05T18:03:56.211Z,100625.94
2022-08-05T18:06:12.018Z,100648.25
2022-08-05T18:08:45.518Z,100630.28
2022-08-05T18:11:24.496Z,100649.94
2022-08-05T18:14:03.372Z,100660.72
2022-08-05T18:16:32.684Z,100629.91
2022-08-05T18:19:02.441Z,100654.63
2022-08-05T18:22:08.541Z,100661.03
2022-08-05T18:24:18.477Z,100657.31
2022-08-05T18:26:48.834Z,100664.41
2022-08-05T18:29:17.095Z,100655.63
2022-08-05T18:31:45.011Z,100574.84
2022-08-05T18:34:14.818Z,100657.63
2022-08-05T18:36:43.620Z,100652.88
2022-08-05T18:39:41.823Z,100651.44
2022-08-05T18:42:06.112Z,100653.09
2022-08-05T18:44:51.844Z,100657.63
2022-08-05T18:47:26.763Z,100657.63
2022-08-05T18:50:15.482Z,100655.63
2022-08-05T18:52:50.473Z,100659.34
2022-08-05T18:55:21.728Z,100637.91
2022-08-05T18:57:54.073Z,100661.03
2022-08-05T19:00:31.028Z,100653.97
2022-08-05T19:03:03.182Z,100643.81
2022-08-05T19:06:11.727Z,100666.41
2022-08-05T19:08:30.826Z,100663.88
2022-08-05T19:11:04.729Z,100662.72
2022-08-05T19:13:36.078Z,100664.75
2022-08-05T19:16:25.509Z,100664.91
2022-08-05T19:18:54.080Z,100668.41
2022-08-05T19:21:27.542Z,100677.19
2022-08-05T19:24:05.771Z,100662.88
2022-08-05T19:26:54.517Z,100668.41
2022-08-05T19:29:26.531Z,100667.44
2022-08-05T19:32:03.540Z,100670.13
2022-08-05T19:34:32.532Z,100646.69
2022-08-05T19:37:02.529Z,100622.97
2022-08-05T19:39:32.009Z,100663.03
2022-08-05T19:42:15.297Z,100670.13
2022-08-05T19:44:45.141Z,100632.41
2022-08-05T19:47:16.130Z,100659.97
2022-08-05T19:49:45.117Z,100668.41
2022-08-05T19:52:31.088Z,100670.13
2022-08-05T19:55:07.004Z,100678.22
2022-08-05T19:58:19.440Z,100650.81
2022-08-05T20:00:38.260Z,100685.44
2022-08-05T20:03:08.675Z,100668.72
2022-08-05T20:05:50.061Z,100679.19
2022-08-05T20:08:24.595Z,100679.19
2022-08-05T20:10:53.404Z,100629.84
2022-08-05T20:13:30.192Z,100673.81
2022-08-05T20:16:10.222Z,100675.50
2022-08-05T20:18:38.817Z,100672.44
2022-08-05T20:21:08.087Z,100665.22
2022-08-05T20:23:51.550Z,100672.66
2022-08-05T20:26:24.741Z,100676.34
2022-08-05T20:28:55.645Z,100628.16
2022-08-05T20:31:28.786Z,100672.13
2022-08-05T20:34:12.519Z,100672.81
2022-08-05T20:36:43.166Z,100675.50
2022-08-05T20:39:13.596Z,100673.81
2022-08-05T20:41:45.308Z,100663.88
2022-08-05T20:44:18.433Z,100664.75
2022-08-05T20:46:56.844Z,100673.81
2022-08-05T20:49:25.789Z,100599.13
2022-08-05T20:51:55.334Z,100667.44
2022-08-05T20:54:55.285Z,100670.94
2022-08-05T20:57:42.084Z,100633.22
2022-08-05T21:00:21.224Z,100672.81
2022-08-05T21:02:57.834Z,100678.22
2022-08-05T21:05:38.138Z,100679.19
2022-08-05T21:08:13.916Z,100668.41
2022-08-05T21:10:48.926Z,100661.66
2022-08-05T21:13:26.168Z,100673.81
2022-08-05T21:16:05.539Z,100669.06
2022-08-05T21:18:33.675Z,100676.66
2022-08-05T21:21:01.550Z,100679.19
2022-08-05T21:23:37.457Z,100673.81
2022-08-05T21:26:14.420Z,100668.41
2022-08-05T21:28:47.995Z,100646.09
2022-08-05T21:31:20.138Z,100671.09
2022-08-05T21:33:49.686Z,100664.75
2022-08-05T21:36:19.256Z,100651.53
2022-08-05T21:38:58.610Z,100646.09
2022-08-05T21:41:33.842Z,100652.84
2022-08-05T21:44:04.255Z,100660.63
2022-08-05T21:46:34.452Z,100680.91
2022-08-05T21:49:03.020Z,100670.13
2022-08-05T21:52:26.824Z,100663.31
2022-08-05T21:54:30.888Z,100680.91
2022-08-05T21:57:31.456Z,100630.38
2022-08-05T22:00:03.402Z,100675.13
2022-08-05T22:02:33.578Z,100676.50
2022-08-05T22:05:01.917Z,100667.06
2022-08-05T22:07:54.461Z,100653.38
2022-08-05T22:10:27.163Z,100618.34
2022-08-05T22:12:58.878Z,100679.19
2022-08-05T22:16:01.240Z,100669.06
2022-08-05T22:18:25.940Z,100677.50
2022-08-05T22:20:54.524Z,100668.41
2022-08-05T22:24:00.814Z,100674.66
2022-08-05T22:26:49.602Z,100673.81
2022-08-05T22:29:26.895Z,100670.13
2022-08-05T22:31:59.609Z,100625.09
2022-08-05T22:34:31.786Z,100682.91
2022-08-05T22:37:00.451Z,100652.44
2022-08-05T22:39:33.268Z,100665.31
2022-08-05T22:42:09.626Z,100675.59
2022-08-05T22:44:53.512Z,100669.38
2022-08-05T22:47:28.954Z,100688.59
2022-08-05T22:50:17.923Z,100688.28
2022-08-05T22:52:47.821Z,100675.38
2022-08-05T22:55:19.081Z,100684.59
2022-08-05T22:57:48.919Z,100642.13
2022-08-05T23:00:20.773Z,100685.22
2022-08-05T23:02:50.301Z,100664.28
2022-08-05T23:05:18.784Z,100704.44
2022-08-05T23:07:49.671Z,100650.34
2022-08-05T23:10:20.144Z,100706.13
2022-08-05T23:12:51.317Z,100663.34
2022-08-05T23:15:29.268Z,100707.16
2022-08-05T23:18:01.572Z,100706.44
2022-08-05T23:20:32.382Z,100688.19
2022-08-05T23:23:00.571Z,100713.22
2022-08-05T23:25:51.954Z,100710.84
2022-08-05T23:28:19.843Z,100716.59
2022-08-05T23:30:53.260Z,100678.00
2022-08-05T23:33:26.131Z,100674.63
2022-08-05T23:36:10.825Z,100717.94
2022-08-05T23:38:42.083Z,100710.47
2022-08-05T23:41:11.156Z,100722.28
2022-08-05T23:44:06.375Z,100673.25
2022-08-05T23:46:28.940Z,100715.22
2022-08-05T23:49:01.228Z,100661.13
2022-08-05T23:51:53.395Z,100703.72
2022-08-05T23:54:26.084Z,100708.78
2022-08-05T23:56:55.387Z,100717.22
2022-08-05T23:59:27.646Z,100716.91
